Montijo, Spain
Current Conditions -  °F | °C
As of 2:28 PM on Thursday 18 Dec 2014 (Local Time) from LEBZ Reporting Station
Broken Clouds Broken Clouds  
Wind Chill: 46°   Ceiling: 500
Heat Index: 46°   Visibility: 5mi
Dew Point: 46°   Wind: 2mph
Humidity: 100%   Direction: NA
Pressure: 30.39"   Gusts: NA
Location:  38.91°N, 6.62°W
Report Text: LEBZ 181328Z VRB02KT 8000 BKN005 BKN007 08/08 Q1029
Loading
Personal Weather Stations






























Interactive Weather Map New forecast layout! Learn more

10-Day Weather Forecast

Advertisements
Track Severe Weather on mobile